createdAt,value
2023-04-10T00:01:08.178Z,102317.75
2023-04-10T00:03:35.353Z,102324.53
2023-04-10T00:06:02.320Z,102322.41
2023-04-10T00:08:29.236Z,102326.41
2023-04-10T00:10:56.989Z,102314.84
2023-04-10T00:13:25.228Z,102319.97
2023-04-10T00:15:52.135Z,102313.84
2023-04-10T00:18:19.069Z,102315.69
2023-04-10T00:20:46.000Z,102310.69
2023-04-10T00:23:12.913Z,102311.31
2023-04-10T00:25:39.840Z,102304.97
2023-04-10T00:28:06.899Z,102311.28
2023-04-10T00:30:35.235Z,102303.34
2023-04-10T00:33:02.202Z,102296.72
2023-04-10T00:35:29.108Z,102293.38
2023-04-10T00:37:56.831Z,102292.03
2023-04-10T00:40:23.942Z,102290.69
2023-04-10T00:42:52.273Z,102289.66
2023-04-10T00:45:19.523Z,102290.94
2023-04-10T00:47:47.989Z,102287.78
2023-04-10T00:50:15.286Z,102287.13
2023-04-10T00:52:42.467Z,102276.34
2023-04-10T00:55:11.011Z,102263.22
2023-04-10T00:57:38.364Z,102272.41
2023-04-10T01:00:06.747Z,102271.75
2023-04-10T01:02:33.730Z,102268.59
2023-04-10T01:05:02.442Z,102265.59
2023-04-10T01:07:48.840Z,102263.25
2023-04-10T01:10:26.208Z,102264.06
2023-04-10T01:13:05.793Z,102268.16
2023-04-10T01:15:43.931Z,102258.56
2023-04-10T01:18:22.885Z,102265.44
2023-04-10T01:20:51.191Z,102256.34
2023-04-10T01:24:07.166Z,102254.03
2023-04-10T01:27:01.431Z,102252.41
2023-04-10T01:29:34.038Z,102250.03
2023-04-10T01:32:04.909Z,102245.13
2023-04-10T01:34:39.406Z,102251.09
2023-04-10T01:37:16.595Z,102247.16
2023-04-10T01:39:49.955Z,102245.81
2023-04-10T01:42:20.745Z,102248.97
2023-04-10T01:44:51.847Z,102243.84
2023-04-10T01:47:19.770Z,102238.47
2023-04-10T01:49:50.422Z,102242.25
2023-04-10T01:52:20.217Z,102238.94
2023-04-10T01:54:48.950Z,102240.69
2023-04-10T01:57:17.289Z,102228.44
2023-04-10T01:59:44.432Z,102233.22
2023-04-10T02:02:12.878Z,102230.72
2023-04-10T02:04:40.047Z,102231.03
2023-04-10T02:07:13.733Z,102224.06
2023-04-10T02:09:49.903Z,102222.06
2023-04-10T02:12:22.570Z,102227.47
2023-04-10T02:14:53.043Z,102223.03
2023-04-10T02:17:28.743Z,102223.94
2023-04-10T02:19:57.266Z,102220.91
2023-04-10T02:22:26.440Z,102223.38
2023-04-10T02:24:54.480Z,102217.66
2023-04-10T02:27:29.289Z,102215.00
2023-04-10T02:29:56.738Z,102203.09
2023-04-10T02:32:25.685Z,102203.41
2023-04-10T02:34:52.647Z,102199.78
2023-04-10T02:37:19.546Z,102199.50
2023-04-10T02:39:46.501Z,102193.97
2023-04-10T02:42:13.436Z,102191.19
2023-04-10T02:44:40.577Z,102190.56
2023-04-10T02:47:08.009Z,102189.31
2023-04-10T02:49:36.801Z,102191.63
2023-04-10T02:52:03.845Z,102193.13
2023-04-10T02:54:30.796Z,102191.16
2023-04-10T02:56:58.774Z,102188.53
2023-04-10T02:59:25.720Z,102183.41
2023-04-10T03:01:52.622Z,102193.28
2023-04-10T03:04:19.944Z,102187.56
2023-04-10T03:06:48.370Z,102191.03
2023-04-10T03:09:15.330Z,102192.66
2023-04-10T03:11:42.222Z,102188.84
2023-04-10T03:14:12.018Z,102183.88
2023-04-10T03:16:39.153Z,102182.50
2023-04-10T03:19:06.284Z,102176.69
2023-04-10T03:21:33.679Z,102171.41
2023-04-10T03:24:02.611Z,102170.34
2023-04-10T03:26:29.561Z,102167.03
2023-04-10T03:28:56.431Z,102166.66
2023-04-10T03:31:23.725Z,102160.69
2023-04-10T03:33:50.925Z,102162.66
2023-04-10T03:36:17.964Z,102155.03
2023-04-10T03:38:44.979Z,102155.78
2023-04-10T03:41:13.206Z,102153.31
2023-04-10T03:43:40.147Z,102149.00
2023-04-10T03:46:07.243Z,102148.03
2023-04-10T03:48:34.223Z,102147.19
2023-04-10T03:51:02.159Z,102150.84
2023-04-10T03:53:29.324Z,102146.69
2023-04-10T03:55:56.303Z,102149.44
2023-04-10T03:58:24.641Z,102146.69
2023-04-10T04:00:51.537Z,102152.09
2023-04-10T04:03:18.700Z,102147.25
2023-04-10T04:05:45.916Z,102147.94
2023-04-10T04:08:13.879Z,102145.31
2023-04-10T04:10:40.812Z,102148.94
2023-04-10T04:13:07.693Z,102145.75
2023-04-10T04:15:36.016Z,102149.50
2023-04-10T04:18:02.922Z,102147.88
2023-04-10T04:20:30.042Z,102149.22
2023-04-10T04:22:56.935Z,102147.56
2023-04-10T04:25:23.994Z,102148.31
2023-04-10T04:27:51.181Z,102151.25
2023-04-10T04:30:18.224Z,102147.09
2023-04-10T04:32:46.428Z,102154.34
2023-04-10T04:35:13.333Z,102149.72
2023-04-10T04:37:40.717Z,102156.53
2023-04-10T04:40:08.909Z,102150.41
2023-04-10T04:42:35.802Z,102155.69
2023-04-10T04:45:02.872Z,102153.66
2023-04-10T04:47:30.194Z,102146.72
2023-04-10T04:49:58.417Z,102149.06
2023-04-10T04:52:25.548Z,102154.34
2023-04-10T04:54:52.576Z,102159.63
2023-04-10T04:57:19.463Z,102149.72
2023-04-10T04:59:46.355Z,102150.13
2023-04-10T05:02:13.340Z,102156.75
2023-04-10T05:04:42.091Z,102155.13
2023-04-10T05:07:10.482Z,102156.91
2023-04-10T05:09:37.369Z,102155.41
2023-04-10T05:12:04.828Z,102153.44
2023-04-10T05:14:31.725Z,102154.28
2023-04-10T05:16:58.568Z,102159.78
2023-04-10T05:19:25.528Z,102150.56
2023-04-10T05:21:52.418Z,102150.91
2023-04-10T05:24:21.481Z,102154.50
2023-04-10T05:26:48.358Z,102152.53
2023-04-10T05:29:15.319Z,102158.03
2023-04-10T05:31:42.296Z,102153.03
2023-04-10T05:34:09.275Z,102146.97
2023-04-10T05:36:36.731Z,102133.78
2023-04-10T05:39:03.868Z,102136.78
2023-04-10T05:41:32.125Z,102135.13
2023-04-10T05:43:59.107Z,102133.84
2023-04-10T05:46:26.042Z,102129.09
2023-04-10T05:48:53.516Z,102129.59
2023-04-10T05:51:20.572Z,102124.03
2023-04-10T05:53:48.730Z,102134.38
2023-04-10T05:56:15.661Z,102135.06
2023-04-10T05:58:44.004Z,102123.44
2023-04-10T06:01:11.318Z,102126.75
2023-04-10T06:03:38.326Z,102126.47
2023-04-10T06:06:07.803Z,102132.47
2023-04-10T06:08:34.731Z,102123.28
2023-04-10T06:11:01.634Z,102117.66
2023-04-10T06:13:28.573Z,102116.06
2023-04-10T06:15:56.860Z,102110.84
2023-04-10T06:18:23.736Z,102119.16
2023-04-10T06:20:50.636Z,102110.22
2023-04-10T06:23:17.551Z,102108.47
2023-04-10T06:25:44.507Z,102106.91
2023-04-10T06:28:11.553Z,102113.13
2023-04-10T06:30:38.448Z,102098.28
2023-04-10T06:33:06.703Z,102102.97
2023-04-10T06:35:34.338Z,102098.75
2023-04-10T06:38:01.299Z,102094.00
2023-04-10T06:40:29.447Z,102098.94
2023-04-10T06:42:56.445Z,102090.38
2023-04-10T06:45:23.363Z,102087.28
2023-04-10T06:47:51.252Z,102086.44
2023-04-10T06:50:19.507Z,102091.56
2023-04-10T06:52:46.581Z,102090.91
2023-04-10T06:55:13.488Z,102096.03
2023-04-10T06:57:40.665Z,102092.59
2023-04-10T07:00:09.417Z,102095.75
2023-04-10T07:02:36.380Z,102093.13
2023-04-10T07:05:03.579Z,102091.13
2023-04-10T07:07:32.864Z,102091.47
2023-04-10T07:09:59.827Z,102094.28
2023-04-10T07:12:26.848Z,102087.34
2023-04-10T07:14:53.747Z,102084.53
2023-04-10T07:17:21.149Z,102083.31
2023-04-10T07:19:48.100Z,102076.84
2023-04-10T07:22:15.681Z,102078.88
2023-04-10T07:24:44.255Z,102070.84
2023-04-10T07:27:12.760Z,102078.00
2023-04-10T07:29:39.664Z,102069.25
2023-04-10T07:32:06.879Z,102064.84
2023-04-10T07:34:33.965Z,102063.97
2023-04-10T07:37:00.866Z,102058.31
2023-04-10T07:39:27.741Z,102052.38
2023-04-10T07:41:56.324Z,102055.72
2023-04-10T07:44:23.272Z,102050.91
2023-04-10T07:46:52.145Z,102046.03
2023-04-10T07:49:19.050Z,102039.09
2023-04-10T07:51:46.024Z,102038.97
2023-04-10T07:54:12.944Z,102038.22
2023-04-10T07:56:40.161Z,102037.50
2023-04-10T07:59:08.659Z,102031.66
2023-04-10T08:01:35.688Z,102026.63
2023-04-10T08:04:05.668Z,102028.22
2023-04-10T08:06:33.215Z,102025.47
2023-04-10T08:09:01.540Z,102016.28
2023-04-10T08:11:31.255Z,102009.25
2023-04-10T08:14:03.754Z,102002.91
2023-04-10T08:16:33.972Z,101999.09
2023-04-10T08:19:02.433Z,102000.97
2023-04-10T08:21:31.749Z,101980.91
2023-04-10T08:24:01.185Z,101982.09
2023-04-10T08:26:29.172Z,101975.84
2023-04-10T08:28:59.724Z,101973.53
2023-04-10T08:31:29.293Z,101972.75
2023-04-10T08:33:58.566Z,101969.81
2023-04-10T08:36:27.097Z,101961.16
2023-04-10T08:38:54.218Z,101964.66
2023-04-10T08:41:21.244Z,101956.41
2023-04-10T08:43:50.061Z,101962.81
2023-04-10T08:46:17.253Z,101964.22
2023-04-10T08:48:52.454Z,101961.63
2023-04-10T08:51:28.812Z,101960.03
2023-04-10T08:54:06.286Z,101948.38
2023-04-10T08:56:35.637Z,101949.16
2023-04-10T08:59:04.390Z,101943.47
2023-04-10T09:01:31.575Z,101943.41
2023-04-10T09:03:59.772Z,101930.53
2023-04-10T09:06:28.448Z,101925.19
2023-04-10T09:08:55.505Z,101927.91
2023-04-10T09:11:22.473Z,101923.13
2023-04-10T09:13:49.444Z,101917.22
2023-04-10T09:16:16.457Z,101915.16
2023-04-10T09:18:46.573Z,101912.78
2023-04-10T09:21:17.158Z,101906.84
2023-04-10T09:23:47.839Z,101913.06
2023-04-10T09:26:27.598Z,101906.84
2023-04-10T09:29:01.150Z,101886.19
2023-04-10T09:31:34.990Z,101883.19
2023-04-10T09:34:10.755Z,101870.56
2023-04-10T09:36:38.226Z,101872.28
2023-04-10T09:39:07.622Z,101878.34
2023-04-10T09:41:34.917Z,101861.75
2023-04-10T09:44:11.320Z,101858.81
2023-04-10T09:46:38.763Z,101853.91
2023-04-10T09:49:07.163Z,101846.41
2023-04-10T09:51:36.221Z,101852.81
2023-04-10T09:54:04.116Z,101831.97
2023-04-10T09:56:38.968Z,101827.09
2023-04-10T09:59:07.806Z,101825.03
2023-04-10T10:01:37.665Z,101817.34
2023-04-10T10:04:05.688Z,101822.38
2023-04-10T10:06:33.662Z,101809.47
2023-04-10T10:09:04.258Z,101813.81
2023-04-10T10:11:35.273Z,101812.22
2023-04-10T10:14:09.103Z,101786.53
2023-04-10T10:16:46.269Z,101787.88
2023-04-10T10:19:20.424Z,101770.31
2023-04-10T10:21:48.574Z,101777.69
2023-04-10T10:24:18.522Z,101771.97
2023-04-10T10:26:48.478Z,101763.53
2023-04-10T10:29:17.457Z,101765.38
2023-04-10T10:31:47.813Z,101754.63
2023-04-10T10:34:16.528Z,101763.03
2023-04-10T10:36:43.447Z,101756.50
2023-04-10T10:39:28.721Z,101775.50
2023-04-10T10:42:08.448Z,101751.59
2023-04-10T10:44:47.109Z,101736.31
2023-04-10T10:47:19.697Z,101748.25
2023-04-10T10:49:58.392Z,101726.59
2023-04-10T10:52:46.790Z,101719.34
2023-04-10T10:55:35.101Z,101716.16
2023-04-10T10:58:08.135Z,101716.19
2023-04-10T11:01:10.005Z,101714.81
2023-04-10T11:03:37.948Z,101702.56
2023-04-10T11:06:08.334Z,101691.94
2023-04-10T11:08:44.511Z,101688.53
2023-04-10T11:11:15.972Z,101685.94
2023-04-10T11:14:17.587Z,101690.31
2023-04-10T11:16:47.531Z,101664.09
2023-04-10T11:19:17.800Z,101666.03
2023-04-10T11:22:08.270Z,101671.84
2023-04-10T11:24:57.852Z,101663.56
2023-04-10T11:27:48.344Z,101655.72
2023-04-10T11:30:36.421Z,101653.97
2023-04-10T11:33:05.351Z,101643.19
2023-04-10T11:35:34.158Z,101659.75
2023-04-10T11:38:16.413Z,101657.19
2023-04-10T11:41:04.179Z,101634.41
2023-04-10T11:43:32.326Z,101620.28
2023-04-10T11:46:07.699Z,101614.22
2023-04-10T11:48:35.347Z,101624.91
2023-04-10T11:51:10.841Z,101608.03
2023-04-10T11:53:39.109Z,101610.50
2023-04-10T11:56:15.713Z,101606.78
2023-04-10T11:58:42.786Z,101594.66
2023-04-10T12:01:14.315Z,101594.84
2023-04-10T12:03:43.867Z,101601.88
2023-04-10T12:06:13.266Z,101593.63
2023-04-10T12:08:45.099Z,101607.97
2023-04-10T12:11:13.014Z,101590.34
2023-04-10T12:13:40.613Z,101573.69
2023-04-10T12:16:10.829Z,101590.00
2023-04-10T12:18:38.627Z,101587.22
2023-04-10T12:21:08.631Z,101571.91
2023-04-10T12:23:41.807Z,101569.81
2023-04-10T12:26:14.547Z,101554.22
2023-04-10T12:28:51.222Z,101565.94
2023-04-10T12:31:28.108Z,101548.31
2023-04-10T12:33:57.846Z,101549.78
2023-04-10T12:36:31.937Z,101538.81
2023-04-10T12:39:01.630Z,101521.09
2023-04-10T12:41:31.211Z,101517.72
2023-04-10T12:44:09.188Z,101521.28
2023-04-10T12:46:38.127Z,101515.38
2023-04-10T12:49:13.693Z,101502.72
2023-04-10T12:51:46.589Z,101505.28
2023-04-10T12:54:28.925Z,101504.38
2023-04-10T12:56:57.637Z,101475.00
2023-04-10T12:59:24.922Z,101474.84
2023-04-10T13:01:53.509Z,101491.34
2023-04-10T13:04:21.063Z,101478.00
2023-04-10T13:06:52.546Z,101466.25
2023-04-10T13:09:19.889Z,101473.78
2023-04-10T13:11:47.800Z,101448.38
2023-04-10T13:14:17.118Z,101452.53
2023-04-10T13:16:44.201Z,101449.16
2023-04-10T13:19:12.984Z,101458.84
2023-04-10T13:21:40.265Z,101442.81
2023-04-10T13:24:07.289Z,101434.34
2023-04-10T13:26:34.503Z,101441.44
2023-04-10T13:29:01.469Z,101431.09
2023-04-10T13:31:28.751Z,101412.03
2023-04-10T13:33:55.992Z,101438.09
2023-04-10T13:36:24.430Z,101412.19
2023-04-10T13:38:51.540Z,101397.31
2023-04-10T13:41:18.836Z,101394.72
2023-04-10T13:43:46.011Z,101381.91
2023-04-10T13:46:12.980Z,101376.56
2023-04-10T13:48:41.622Z,101370.88
2023-04-10T13:51:09.297Z,101372.25
2023-04-10T13:53:37.642Z,101363.69
2023-04-10T13:56:06.346Z,101355.59
2023-04-10T13:58:34.395Z,101344.53
2023-04-10T14:01:01.734Z,101336.09
2023-04-10T14:03:28.810Z,101333.75
2023-04-10T14:05:56.122Z,101331.44
2023-04-10T14:08:23.156Z,101326.41
2023-04-10T14:10:52.765Z,101323.75
2023-04-10T14:13:20.253Z,101312.72
2023-04-10T14:15:47.346Z,101311.19
2023-04-10T14:18:18.309Z,101305.69
2023-04-10T14:20:45.422Z,101309.00
2023-04-10T14:23:18.096Z,101285.84
2023-04-10T14:25:45.819Z,101284.44
2023-04-10T14:28:17.837Z,101280.53
2023-04-10T14:30:45.180Z,101281.69
2023-04-10T14:33:12.608Z,101279.88
2023-04-10T14:35:40.867Z,101262.06
2023-04-10T14:38:08.177Z,101261.03
2023-04-10T14:40:36.833Z,101258.28
2023-04-10T14:43:04.355Z,101252.69
2023-04-10T14:45:33.931Z,101232.28
2023-04-10T14:48:02.254Z,101235.16
2023-04-10T14:50:32.044Z,101234.34
2023-04-10T14:53:02.434Z,101235.53
2023-04-10T14:55:30.387Z,101231.53
2023-04-10T14:57:58.684Z,101219.56
2023-04-10T15:00:26.550Z,101219.50
2023-04-10T15:02:57.178Z,101219.78
2023-04-10T15:05:26.206Z,101208.75
2023-04-10T15:07:53.603Z,101201.94
2023-04-10T15:10:20.888Z,101187.84
2023-04-10T15:12:47.852Z,101188.50
2023-04-10T15:15:15.045Z,101188.38
2023-04-10T15:17:41.995Z,101185.91
2023-04-10T15:20:12.194Z,101177.13
2023-04-10T15:22:40.337Z,101167.47
2023-04-10T15:25:09.588Z,101165.75
2023-04-10T15:27:36.575Z,101173.09
2023-04-10T15:30:06.124Z,101166.09
2023-04-10T15:32:33.041Z,101161.22
2023-04-10T15:35:00.251Z,101139.78
2023-04-10T15:37:28.775Z,101150.78
2023-04-10T15:39:55.672Z,101145.91
2023-04-10T15:42:22.668Z,101138.72
2023-04-10T15:44:49.667Z,101129.94
2023-04-10T15:47:16.773Z,101112.63
2023-04-10T15:49:43.735Z,101108.66
2023-04-10T15:52:11.047Z,101106.69
2023-04-10T15:54:40.226Z,101100.63
2023-04-10T15:57:07.202Z,101098.25
2023-04-10T15:59:36.114Z,101092.06
2023-04-10T16:02:03.568Z,101080.19
2023-04-10T16:04:31.436Z,101081.16
2023-04-10T16:06:58.810Z,101077.59
2023-04-10T16:09:26.836Z,101061.31
2023-04-10T16:11:56.129Z,101065.06
2023-04-10T16:14:23.318Z,101065.38
2023-04-10T16:16:51.194Z,101054.72
2023-04-10T16:19:18.099Z,101042.94
2023-04-10T16:21:45.868Z,101035.31
2023-04-10T16:24:12.917Z,101028.47
2023-04-10T16:26:39.915Z,101050.97
2023-04-10T16:29:08.230Z,101041.72
2023-04-10T16:31:35.382Z,101052.31
2023-04-10T16:34:04.284Z,101042.81
2023-04-10T16:36:31.463Z,101037.91
2023-04-10T16:38:58.859Z,101034.97
2023-04-10T16:41:26.251Z,101043.09
2023-04-10T16:43:53.272Z,101034.97
2023-04-10T16:46:21.669Z,101031.13
2023-04-10T16:48:48.864Z,101023.91
2023-04-10T16:51:17.432Z,101025.97
2023-04-10T16:53:44.754Z,101019.78
2023-04-10T16:56:12.047Z,101023.22
2023-04-10T16:58:40.974Z,101015.41
2023-04-10T17:01:15.848Z,101012.66
2023-04-10T17:03:44.409Z,101002.31
2023-04-10T17:06:11.387Z,101005.47
2023-04-10T17:08:38.642Z,100996.63
2023-04-10T17:11:06.593Z,101004.81
2023-04-10T17:13:35.585Z,100994.56
2023-04-10T17:16:03.904Z,100984.72
2023-04-10T17:18:31.021Z,100984.63
2023-04-10T17:20:59.718Z,100980.25
2023-04-10T17:23:26.749Z,100979.16
2023-04-10T17:25:53.937Z,100976.31
2023-04-10T17:28:21.327Z,100976.31
2023-04-10T17:30:48.342Z,100973.03
2023-04-10T17:33:15.360Z,100991.72
2023-04-10T17:35:42.885Z,100983.56
2023-04-10T17:38:11.301Z,101004.84
2023-04-10T17:40:40.756Z,101002.31
2023-04-10T17:43:07.852Z,100972.88
2023-04-10T17:45:37.146Z,100926.66
2023-04-10T17:48:05.078Z,100900.94
2023-04-10T17:50:33.148Z,100911.53
2023-04-10T17:53:00.845Z,100916.78
2023-04-10T17:55:29.241Z,100899.09
2023-04-10T17:57:58.430Z,100897.97
2023-04-10T18:00:25.618Z,100902.47
2023-04-10T18:02:57.854Z,100886.66
2023-04-10T18:05:25.744Z,100895.00
2023-04-10T18:07:52.666Z,100878.34
2023-04-10T18:10:19.949Z,100881.25
2023-04-10T18:12:48.396Z,100881.50
2023-04-10T18:15:15.628Z,100882.31
2023-04-10T18:17:42.630Z,100876.00
2023-04-10T18:20:10.957Z,100860.97
2023-04-10T18:22:38.154Z,100862.44
2023-04-10T18:25:06.689Z,100857.91
2023-04-10T18:27:35.735Z,100859.44
2023-04-10T18:30:04.993Z,100855.13
2023-04-10T18:32:32.677Z,100861.53
2023-04-10T18:34:59.924Z,100858.75
2023-04-10T18:37:27.396Z,100867.59
2023-04-10T18:39:56.898Z,100859.13
2023-04-10T18:42:27.593Z,100863.19
2023-04-10T18:44:54.509Z,100865.66
2023-04-10T18:47:25.804Z,100865.75
2023-04-10T18:49:52.700Z,100857.53
2023-04-10T18:52:19.832Z,100854.28
2023-04-10T18:54:46.682Z,100852.75
2023-04-10T18:57:13.883Z,100850.06
2023-04-10T18:59:40.837Z,100843.44
2023-04-10T19:02:08.894Z,100836.22
2023-04-10T19:04:37.419Z,100828.19
2023-04-10T19:07:04.731Z,100830.78
2023-04-10T19:09:31.589Z,100824.59
2023-04-10T19:11:59.405Z,100824.25
2023-04-10T19:14:26.276Z,100819.41
2023-04-10T19:16:53.190Z,100826.97
2023-04-10T19:19:20.106Z,100828.16
2023-04-10T19:21:48.294Z,100825.47
2023-04-10T19:24:15.193Z,100828.53
2023-04-10T19:26:42.095Z,100830.03
2023-04-10T19:29:09.066Z,100818.06
2023-04-10T19:31:36.103Z,100835.72
2023-04-10T19:34:08.881Z,100842.69
2023-04-10T19:36:36.417Z,100849.19
2023-04-10T19:39:05.111Z,100844.41
2023-04-10T19:41:32.088Z,100845.78
2023-04-10T19:43:59.296Z,100846.03
2023-04-10T19:46:26.508Z,100856.84
2023-04-10T19:48:54.557Z,100841.84
2023-04-10T19:51:21.594Z,100824.06
2023-04-10T19:53:48.652Z,100821.94
2023-04-10T19:56:17.320Z,100835.28
2023-04-10T19:58:56.327Z,100833.19
2023-04-10T20:01:24.164Z,100845.66
2023-04-10T20:03:51.415Z,100821.94
2023-04-10T20:06:18.666Z,100835.06
2023-04-10T20:08:45.612Z,100849.34
2023-04-10T20:11:12.575Z,100844.56
2023-04-10T20:13:41.306Z,100852.47
2023-04-10T20:16:08.662Z,100871.03
2023-04-10T20:18:36.453Z,100863.41
2023-04-10T20:21:04.540Z,100856.63
2023-04-10T20:23:31.507Z,100862.50
2023-04-10T20:25:58.440Z,100849.94
2023-04-10T20:28:25.346Z,100846.84
2023-04-10T20:30:53.542Z,100843.31
2023-04-10T20:33:20.627Z,100837.09
2023-04-10T20:35:47.728Z,100824.78
2023-04-10T20:38:14.774Z,100829.09
2023-04-10T20:40:41.650Z,100830.63
2023-04-10T20:43:11.969Z,100828.56
2023-04-10T20:45:39.414Z,100828.53
2023-04-10T20:48:08.909Z,100821.47
2023-04-10T20:50:37.007Z,100825.31
2023-04-10T20:53:04.114Z,100814.19
2023-04-10T20:55:31.053Z,100816.97
2023-04-10T20:57:58.701Z,100812.16
2023-04-10T21:00:30.880Z,100809.34
2023-04-10T21:02:58.226Z,100806.53
2023-04-10T21:05:26.666Z,100803.69
2023-04-10T21:07:54.256Z,100809.19
2023-04-10T21:10:21.605Z,100815.53
2023-04-10T21:12:48.479Z,100802.47
2023-04-10T21:15:15.624Z,100796.94
2023-04-10T21:17:42.783Z,100794.28
2023-04-10T21:20:11.467Z,100780.63
2023-04-10T21:22:40.188Z,100775.50
2023-04-10T21:25:08.542Z,100771.47
2023-04-10T21:27:35.673Z,100758.00
2023-04-10T21:30:02.590Z,100761.25
2023-04-10T21:32:29.550Z,100758.78
2023-04-10T21:34:56.400Z,100748.19
2023-04-10T21:37:23.526Z,100747.59
2023-04-10T21:39:51.761Z,100712.84
2023-04-10T21:42:19.182Z,100696.31
2023-04-10T21:44:46.910Z,100719.16
2023-04-10T21:47:14.003Z,100723.31
2023-04-10T21:49:41.067Z,100692.31
2023-04-10T21:52:09.285Z,100682.53
2023-04-10T21:54:36.310Z,100688.81
2023-04-10T21:57:10.334Z,100694.38
2023-04-10T21:59:38.108Z,100689.88
2023-04-10T22:02:05.251Z,100687.50
2023-04-10T22:04:33.179Z,100685.06
2023-04-10T22:07:03.686Z,100687.09
2023-04-10T22:09:31.830Z,100702.63
2023-04-10T22:11:58.726Z,100696.09
2023-04-10T22:14:27.370Z,100694.88
2023-04-10T22:16:56.020Z,100688.38
2023-04-10T22:19:25.156Z,100690.00
2023-04-10T22:21:52.304Z,100694.72
2023-04-10T22:24:19.363Z,100693.69
2023-04-10T22:26:46.367Z,100695.28
2023-04-10T22:29:14.482Z,100684.66
2023-04-10T22:31:44.331Z,100671.41
2023-04-10T22:34:11.758Z,100666.28
2023-04-10T22:36:40.257Z,100669.97
2023-04-10T22:39:07.219Z,100668.97
2023-04-10T22:41:34.204Z,100651.81
2023-04-10T22:44:01.146Z,100649.16
2023-04-10T22:46:28.365Z,100633.44
2023-04-10T22:48:56.963Z,100631.38
2023-04-10T22:51:24.068Z,100653.22
2023-04-10T22:53:50.909Z,100651.56
2023-04-10T22:56:19.582Z,100654.41
2023-04-10T22:58:46.526Z,100648.69
2023-04-10T23:01:13.451Z,100634.19
2023-04-10T23:03:40.635Z,100636.00
2023-04-10T23:06:09.564Z,100635.22
2023-04-10T23:08:37.282Z,100627.06
2023-04-10T23:11:04.509Z,100623.41
2023-04-10T23:13:31.374Z,100618.09
2023-04-10T23:15:58.343Z,100627.53
2023-04-10T23:18:25.264Z,100612.00
2023-04-10T23:20:52.208Z,100608.72
2023-04-10T23:23:20.798Z,100596.28
2023-04-10T23:25:47.849Z,100587.53
2023-04-10T23:28:14.778Z,100582.22
2023-04-10T23:30:42.494Z,100572.06
2023-04-10T23:33:09.518Z,100573.72
2023-04-10T23:35:36.793Z,100580.66
2023-04-10T23:38:03.890Z,100590.19
2023-04-10T23:40:32.233Z,100597.38
2023-04-10T23:42:59.090Z,100592.47
2023-04-10T23:45:26.163Z,100586.56
2023-04-10T23:47:53.089Z,100590.22
2023-04-10T23:50:20.028Z,100595.34
2023-04-10T23:52:49.943Z,100598.81
2023-04-10T23:55:21.647Z,100596.56
2023-04-10T23:57:50.058Z,100591.75
